createdAt,value
2023-01-22T00:02:39.218Z,30.33
2023-01-22T00:05:06.597Z,30.30
2023-01-22T00:07:33.931Z,29.92
2023-01-22T00:10:00.625Z,27.55
2023-01-22T00:12:28.047Z,32.72
2023-01-22T00:14:54.841Z,27.92
2023-01-22T00:17:21.505Z,30.85
2023-01-22T00:19:48.221Z,29.67
2023-01-22T00:22:14.890Z,28.98
2023-01-22T00:24:41.778Z,33.05
2023-01-22T00:27:08.477Z,29.30
2023-01-22T00:29:35.393Z,30.45
2023-01-22T00:32:02.313Z,33.42
2023-01-22T00:34:29.589Z,27.63
2023-01-22T00:36:57.979Z,31.90
2023-01-22T00:39:24.723Z,31.08
2023-01-22T00:41:51.940Z,28.63
2023-01-22T00:44:18.693Z,29.05
2023-01-22T00:46:45.549Z,33.35
2023-01-22T00:49:12.770Z,29.80
2023-01-22T00:51:39.771Z,29.05
2023-01-22T00:54:06.609Z,31.95
2023-01-22T00:56:33.486Z,34.05
2023-01-22T00:59:00.274Z,34.53
2023-01-22T01:01:27.105Z,34.83
2023-01-22T01:03:53.821Z,32.33
2023-01-22T01:06:21.923Z,35.25
2023-01-22T01:08:49.639Z,31.08
2023-01-22T01:11:22.365Z,31.17
2023-01-22T01:13:50.412Z,33.65
2023-01-22T01:16:20.197Z,30.83
2023-01-22T01:18:48.080Z,31.90
2023-01-22T01:21:15.569Z,33.45
2023-01-22T01:23:42.826Z,38.63
2023-01-22T01:26:12.920Z,40.65
2023-01-22T01:28:41.125Z,34.20
2023-01-22T01:31:11.006Z,34.88
2023-01-22T01:33:37.885Z,29.33
2023-01-22T01:36:08.085Z,29.17
2023-01-22T01:38:34.987Z,28.42
2023-01-22T01:41:01.931Z,34.83
2023-01-22T01:43:28.646Z,37.00
2023-01-22T01:48:33.687Z,35.58
2023-01-22T01:51:11.971Z,33.58
2023-01-22T01:53:40.775Z,37.28
2023-01-22T01:56:12.783Z,28.13
2023-01-22T01:58:42.396Z,34.95
2023-01-22T02:01:13.780Z,32.35
2023-01-22T02:03:41.131Z,33.33
2023-01-22T02:06:12.121Z,37.17
2023-01-22T02:08:40.368Z,33.47
2023-01-22T02:11:08.311Z,32.95
2023-01-22T02:13:37.447Z,34.53
2023-01-22T02:16:05.823Z,32.95
2023-01-22T02:18:32.476Z,37.53
2023-01-22T02:23:30.269Z,35.33
2023-01-22T02:26:00.246Z,36.67
2023-01-22T02:28:27.010Z,36.50
2023-01-22T02:30:55.751Z,30.90
2023-01-22T02:33:22.590Z,32.15
2023-01-22T02:35:49.293Z,32.92
2023-01-22T02:40:49.211Z,39.05
2023-01-22T02:43:19.027Z,33.17
2023-01-22T02:45:45.922Z,33.83
2023-01-22T02:48:12.926Z,31.48
2023-01-22T02:50:39.705Z,34.83
2023-01-22T02:53:06.486Z,30.13
2023-01-22T02:55:34.150Z,30.23
2023-01-22T03:00:27.426Z,28.25
2023-01-22T03:02:55.191Z,27.10
2023-01-22T03:07:48.522Z,31.75
2023-01-22T03:10:18.738Z,31.52
2023-01-22T03:13:06.180Z,26.98
2023-01-22T03:15:52.405Z,31.20
2023-01-22T03:18:38.327Z,27.05
2023-01-22T03:21:17.057Z,27.88
2023-01-22T03:23:52.570Z,27.17
2023-01-22T03:26:20.746Z,25.77
2023-01-22T03:28:48.627Z,30.50
2023-01-22T03:31:16.624Z,30.88
2023-01-22T03:33:44.309Z,31.42
2023-01-22T03:36:13.736Z,29.30
2023-01-22T03:38:45.831Z,32.85
2023-01-22T03:41:18.143Z,30.58
2023-01-22T03:43:47.715Z,31.88
2023-01-22T03:46:19.895Z,37.92
2023-01-22T03:48:51.432Z,34.53
2023-01-22T03:51:18.748Z,33.40
2023-01-22T03:53:46.169Z,30.10
2023-01-22T03:56:15.849Z,34.20
2023-01-22T03:58:43.287Z,34.72
2023-01-22T04:01:13.387Z,36.95
2023-01-22T04:03:40.663Z,37.10
2023-01-22T04:06:09.381Z,38.85
2023-01-22T04:08:38.582Z,36.17
2023-01-22T04:11:05.752Z,35.85
2023-01-22T04:13:34.083Z,44.35
2023-01-22T04:16:01.950Z,36.03
2023-01-22T04:18:57.931Z,41.30
2023-01-22T04:21:39.709Z,40.15
2023-01-22T04:24:09.175Z,40.35
2023-01-22T04:26:35.991Z,38.00
2023-01-22T04:29:03.816Z,34.92
2023-01-22T04:31:30.809Z,38.75
2023-01-22T04:34:17.815Z,37.50
2023-01-22T04:37:06.345Z,39.67
2023-01-22T04:39:34.987Z,35.97
2023-01-22T04:42:01.748Z,38.20
2023-01-22T04:44:28.395Z,42.28
2023-01-22T04:49:22.059Z,37.38
2023-01-22T04:51:54.088Z,36.92
2023-01-22T04:54:20.797Z,37.42
2023-01-22T04:56:47.926Z,36.58
2023-01-22T05:01:42.185Z,36.53
2023-01-22T05:04:10.554Z,37.38
2023-01-22T05:06:37.610Z,35.70
2023-01-22T05:09:05.144Z,36.20
2023-01-22T05:11:44.770Z,37.08
2023-01-22T05:14:12.267Z,32.83
2023-01-22T05:16:38.890Z,34.72
2023-01-22T05:21:32.942Z,39.50
2023-01-22T05:26:28.549Z,39.38
2023-01-22T05:29:01.964Z,34.03
2023-01-22T05:31:47.307Z,34.38
2023-01-22T05:34:26.823Z,38.35
2023-01-22T05:36:53.698Z,41.78
2023-01-22T05:39:24.040Z,39.20
2023-01-22T05:41:52.597Z,43.15
2023-01-22T05:44:19.934Z,41.20
2023-01-22T05:46:51.129Z,38.88
2023-01-22T05:49:45.345Z,38.10
2023-01-22T05:52:14.673Z,37.65
2023-01-22T05:54:41.415Z,37.03
2023-01-22T05:57:08.567Z,34.10
2023-01-22T05:59:37.938Z,38.97
2023-01-22T06:02:06.676Z,39.97
2023-01-22T06:04:37.997Z,38.45
2023-01-22T06:07:14.834Z,38.00
2023-01-22T06:12:08.179Z,38.58
2023-01-22T06:14:34.937Z,40.35
2023-01-22T06:17:02.849Z,42.15
2023-01-22T06:19:38.388Z,40.08
2023-01-22T06:22:06.184Z,42.55
2023-01-22T06:24:45.972Z,41.33
2023-01-22T06:27:14.385Z,43.88
2023-01-22T06:29:50.677Z,40.87
2023-01-22T06:32:17.559Z,42.42
2023-01-22T06:34:44.651Z,41.88
2023-01-22T06:39:39.296Z,46.28
2023-01-22T06:42:22.996Z,48.67
2023-01-22T06:44:51.543Z,46.13
2023-01-22T06:47:19.902Z,46.90
2023-01-22T06:49:46.713Z,42.25
2023-01-22T06:52:13.433Z,45.35
2023-01-22T06:54:40.206Z,46.35
2023-01-22T06:57:06.922Z,47.03
2023-01-22T06:59:37.290Z,47.65
2023-01-22T07:02:04.248Z,43.63
2023-01-22T07:04:30.880Z,39.70
2023-01-22T07:09:24.468Z,37.10
2023-01-22T07:11:51.352Z,42.97
2023-01-22T07:14:28.914Z,46.10
2023-01-22T07:17:02.538Z,40.88
2023-01-22T11:38:54.575Z,35.95
2023-01-22T11:41:49.770Z,32.95
2023-01-22T11:44:40.396Z,34.72
2023-01-22T11:47:54.951Z,39.28
2023-01-22T11:50:35.468Z,38.28
2023-01-22T11:53:33.293Z,38.00
2023-01-22T11:56:21.739Z,38.67
2023-01-22T11:59:04.187Z,37.80
2023-01-22T12:02:03.329Z,31.88
2023-01-22T12:04:44.218Z,28.63
2023-01-22T12:07:32.462Z,34.70
2023-01-22T12:09:59.074Z,31.50
2023-01-22T12:15:29.322Z,36.03
2023-01-22T12:18:25.169Z,34.47
2023-01-22T12:21:08.142Z,41.15
2023-01-22T12:23:34.819Z,36.03
2023-01-22T12:29:00.148Z,26.80
2023-01-22T12:31:32.082Z,26.55
2023-01-22T12:34:02.186Z,28.58
2023-01-22T12:36:29.990Z,25.50
2023-01-22T12:39:02.607Z,26.33
2023-01-22T12:41:29.893Z,28.65
2023-01-22T12:44:00.041Z,25.48
2023-01-22T12:46:38.505Z,25.27
2023-01-22T12:49:08.427Z,24.48
2023-01-22T12:51:41.181Z,25.80
2023-01-22T12:54:25.925Z,27.40
2023-01-22T12:57:08.875Z,27.50
2023-01-22T12:59:35.572Z,26.92
2023-01-22T13:04:33.897Z,26.70
2023-01-22T13:07:20.228Z,29.73
2023-01-22T13:09:47.330Z,25.60
2023-01-22T13:12:28.799Z,29.63
2023-01-22T13:14:56.521Z,26.35
2023-01-22T13:17:27.311Z,27.60
2023-01-22T13:19:54.455Z,27.95
2023-01-22T13:22:27.222Z,23.92
2023-01-22T13:24:56.800Z,30.90
2023-01-22T13:27:30.356Z,30.15
2023-01-22T13:30:08.441Z,27.60
2023-01-22T13:32:35.155Z,28.92
2023-01-22T13:37:30.760Z,26.63
2023-01-22T13:39:57.434Z,28.73
2023-01-22T13:44:52.148Z,26.42
2023-01-22T13:47:34.044Z,26.55
2023-01-22T13:50:01.917Z,28.10
2023-01-22T13:52:28.949Z,23.10
2023-01-22T13:55:02.353Z,25.40
2023-01-22T13:57:29.095Z,24.60
2023-01-22T14:02:34.550Z,23.15
2023-01-22T14:05:02.043Z,22.52
2023-01-22T14:07:38.277Z,21.13
2023-01-22T14:10:19.568Z,24.13
2023-01-22T14:12:46.555Z,21.73
2023-01-22T14:15:19.302Z,21.90
2023-01-22T14:17:46.026Z,25.95
2023-01-22T14:22:39.921Z,23.43
2023-01-22T14:25:06.963Z,24.10
2023-01-22T14:27:48.718Z,23.38
2023-01-22T14:30:18.747Z,24.88
2023-01-22T14:32:46.041Z,25.17
2023-01-22T14:35:18.660Z,23.20
2023-01-22T14:37:46.201Z,26.77
2023-01-22T14:40:14.368Z,26.33
2023-01-22T14:42:41.178Z,26.38
2023-01-22T14:45:09.158Z,25.45
2023-01-22T14:47:35.830Z,40.58
2023-01-22T14:52:29.349Z,26.17
2023-01-22T14:54:56.103Z,26.08
2023-01-22T14:57:24.219Z,26.70
2023-01-22T14:59:51.443Z,28.05
2023-01-22T15:02:18.722Z,24.88
2023-01-22T15:04:45.520Z,24.20
2023-01-22T15:07:12.319Z,23.52
2023-01-22T15:09:39.678Z,23.38
2023-01-22T15:12:07.448Z,28.13
2023-01-22T15:14:34.097Z,26.92
2023-01-22T15:19:27.430Z,27.10
2023-01-22T15:24:20.865Z,24.02
2023-01-22T15:26:47.661Z,24.40
2023-01-22T15:29:15.027Z,27.33
2023-01-22T15:31:41.913Z,24.90
2023-01-22T15:34:08.832Z,22.20
2023-01-22T15:36:39.369Z,22.75
2023-01-22T15:39:06.918Z,21.05
2023-01-22T15:41:36.053Z,23.50
2023-01-22T15:44:05.436Z,25.55
2023-01-22T15:46:35.110Z,24.35
2023-01-22T15:49:02.236Z,25.77
2023-01-22T15:51:29.409Z,24.48
2023-01-22T15:53:58.767Z,24.95
2023-01-22T15:56:27.582Z,23.92
2023-01-22T15:58:54.665Z,24.73
2023-01-22T16:01:22.464Z,23.15
2023-01-22T16:03:49.633Z,23.15
2023-01-22T16:06:22.511Z,19.63
2023-01-22T16:08:50.158Z,26.15
2023-01-22T16:11:17.439Z,25.40
2023-01-22T16:13:44.389Z,21.58
2023-01-22T16:16:16.157Z,23.00
2023-01-22T16:18:43.432Z,26.65
2023-01-22T16:21:11.097Z,23.02
2023-01-22T16:23:39.782Z,25.58
2023-01-22T16:26:09.443Z,23.25
2023-01-22T16:28:40.136Z,24.13
2023-01-22T16:31:09.431Z,23.73
2023-01-22T16:33:38.882Z,22.00
2023-01-22T16:36:10.010Z,24.65
2023-01-22T16:38:36.906Z,26.50
2023-01-22T16:41:24.390Z,26.77
2023-01-22T16:43:53.235Z,24.52
2023-01-22T16:46:23.206Z,33.22
2023-01-22T16:48:59.028Z,28.75
2023-01-22T16:51:28.126Z,27.60
2023-01-22T16:53:55.538Z,29.00
2023-01-22T16:56:22.597Z,27.15
2023-01-22T16:58:49.271Z,31.00
2023-01-22T17:03:43.469Z,27.10
2023-01-22T17:06:21.978Z,28.75
2023-01-22T17:08:49.161Z,25.08
2023-01-22T17:11:17.295Z,25.88
2023-01-22T17:13:44.436Z,25.40
2023-01-22T17:16:12.007Z,26.98
2023-01-22T17:18:39.240Z,29.58
2023-01-22T17:21:07.714Z,28.25
2023-01-22T17:23:34.803Z,28.00
2023-01-22T17:26:05.969Z,28.08
2023-01-22T17:28:35.422Z,27.25
2023-01-22T17:31:05.827Z,27.85
2023-01-22T17:33:32.689Z,29.02
2023-01-22T17:36:00.575Z,26.48
2023-01-22T17:38:29.124Z,24.40
2023-01-22T17:40:56.865Z,24.45
2023-01-22T17:43:24.302Z,25.00
2023-01-22T17:45:51.169Z,24.83
2023-01-22T17:48:17.955Z,23.95
2023-01-22T17:53:11.246Z,25.75
2023-01-22T17:58:05.115Z,25.58
2023-01-22T18:00:31.844Z,23.77
2023-01-22T18:02:58.551Z,23.85
2023-01-22T18:05:26.633Z,27.05
2023-01-22T18:07:53.310Z,25.67
2023-01-22T18:17:42.459Z,24.30
2023-01-22T18:20:09.785Z,24.80
2023-01-22T18:22:36.463Z,27.25
2023-01-22T18:27:30.164Z,26.00
2023-01-22T18:29:56.857Z,26.42
2023-01-22T18:34:51.056Z,24.50
2023-01-22T18:39:44.366Z,26.50
2023-01-22T18:44:38.893Z,26.50
2023-01-22T18:47:10.916Z,23.42
2023-01-22T18:49:37.713Z,25.17
2023-01-22T18:52:04.918Z,27.33
2023-01-22T18:54:32.496Z,29.13
2023-01-22T18:56:59.211Z,24.23
2023-01-22T18:59:25.987Z,27.73
2023-01-22T19:01:52.960Z,26.52
2023-01-22T19:04:21.759Z,27.65
2023-01-22T19:06:53.534Z,24.13
2023-01-22T19:09:20.539Z,29.63
2023-01-22T19:11:48.450Z,33.65
2023-01-22T19:14:17.770Z,26.02
2023-01-22T19:16:45.101Z,27.58
2023-01-22T19:19:13.489Z,27.50
2023-01-22T19:21:43.436Z,28.20
2023-01-22T19:24:11.391Z,26.33
2023-01-22T19:26:38.529Z,23.77
2023-01-22T19:29:12.206Z,24.50
2023-01-22T19:31:46.253Z,24.75
2023-01-22T19:34:18.368Z,24.58
2023-01-22T19:36:45.037Z,25.25
2023-01-22T19:41:42.524Z,24.80
2023-01-22T19:44:10.795Z,29.42
2023-01-22T19:46:38.903Z,24.83
2023-01-22T19:49:07.037Z,27.58
2023-01-22T19:51:34.036Z,30.55
2023-01-22T19:54:01.942Z,26.25
2023-01-22T19:56:35.131Z,28.85
2023-01-22T19:59:07.441Z,29.30
2023-01-22T20:01:36.627Z,26.83
2023-01-22T20:04:08.656Z,24.48
2023-01-22T20:06:35.871Z,24.35
2023-01-22T20:09:03.476Z,25.95
2023-01-22T20:11:30.486Z,28.13
2023-01-22T20:13:58.051Z,20.73
2023-01-22T20:16:26.640Z,22.13
2023-01-22T20:18:54.474Z,29.92
2023-01-22T20:21:22.693Z,25.98
2023-01-22T20:23:50.670Z,22.65
2023-01-22T20:26:19.053Z,21.92
2023-01-22T20:28:46.877Z,27.80
2023-01-22T20:31:17.337Z,30.27
2023-01-22T20:33:44.369Z,22.80
2023-01-22T20:36:16.419Z,22.98
2023-01-22T20:38:45.679Z,20.83
2023-01-22T20:41:13.083Z,26.95
2023-01-22T20:43:41.890Z,25.85
2023-01-22T20:46:15.060Z,29.00
2023-01-22T20:48:42.787Z,21.67
2023-01-22T20:51:15.832Z,22.73
2023-01-22T20:53:43.645Z,25.02
2023-01-22T20:56:14.502Z,27.50
2023-01-22T20:58:41.406Z,25.52
2023-01-22T21:01:09.723Z,20.63
2023-01-22T21:03:36.967Z,29.23
2023-01-22T21:06:13.593Z,25.55
2023-01-22T21:08:41.892Z,28.85
2023-01-22T21:11:11.577Z,26.95
2023-01-22T21:13:38.541Z,25.98
2023-01-22T21:16:17.983Z,26.50
2023-01-22T21:18:46.161Z,26.25
2023-01-22T21:21:18.994Z,22.33
2023-01-22T21:23:50.962Z,24.08
2023-01-22T21:26:22.635Z,22.92
2023-01-22T21:28:50.977Z,21.98
2023-01-22T21:31:19.413Z,22.58
2023-01-22T21:33:46.614Z,24.63
2023-01-22T21:36:14.471Z,21.05
2023-01-22T21:38:41.184Z,19.80
2023-01-22T21:43:59.845Z,21.92
2023-01-22T21:46:29.058Z,19.05
2023-01-22T21:49:02.155Z,29.08
2023-01-22T21:51:29.756Z,23.08
2023-01-22T21:53:57.867Z,24.85
2023-01-22T21:56:25.349Z,23.67
2023-01-22T21:58:52.038Z,28.67
2023-01-22T22:03:47.722Z,22.42
2023-01-22T22:06:14.610Z,25.30
2023-01-22T22:08:43.393Z,26.70
2023-01-22T22:11:12.374Z,26.63
2023-01-22T22:13:39.287Z,28.02
2023-01-22T22:16:07.819Z,24.65
2023-01-22T22:18:35.486Z,22.67
2023-01-22T22:21:05.234Z,25.05
2023-01-22T22:23:32.770Z,27.02
2023-01-22T22:26:00.590Z,25.02
2023-01-22T22:28:27.935Z,27.80
2023-01-22T22:31:02.390Z,29.80
2023-01-22T22:33:29.070Z,28.90
2023-01-22T22:38:22.284Z,23.70
2023-01-22T22:43:25.945Z,25.95
2023-01-22T22:48:19.681Z,19.23
2023-01-22T22:50:46.381Z,21.48
2023-01-22T22:53:13.082Z,24.30
2023-01-22T22:55:41.991Z,22.30
2023-01-22T22:58:09.531Z,19.33
2023-01-22T23:00:38.039Z,21.40
2023-01-22T23:03:04.910Z,22.83
2023-01-22T23:05:36.918Z,18.88
2023-01-22T23:08:03.874Z,20.70
2023-01-22T23:10:31.921Z,22.08
2023-01-22T23:13:00.515Z,22.55
2023-01-22T23:15:29.500Z,55.78
2023-01-22T23:17:57.839Z,32.63
2023-01-22T23:20:25.346Z,28.35
2023-01-22T23:22:57.695Z,23.23
2023-01-22T23:25:24.854Z,26.05
2023-01-22T23:27:51.885Z,24.27
2023-01-22T23:30:18.916Z,24.02
2023-01-22T23:32:45.833Z,24.95
2023-01-22T23:35:12.559Z,29.75
2023-01-22T23:37:39.252Z,27.20
2023-01-22T23:42:32.769Z,30.10
2023-01-22T23:47:27.144Z,28.55
2023-01-22T23:49:53.913Z,26.92
2023-01-22T23:54:48.097Z,30.40
2023-01-22T23:57:14.857Z,30.88
2023-01-22T23:59:41.537Z,30.88
